Wetterstation Vordersexau
Wetterdaten: Woche 16.06.14 - 22.06.14 (KW25)
Datum Zeit Temp. A. Feuchte A. Luftdruck Regen Wind Richtung Taupunkt Windchill Windben
16.06.2014 00:00 14,2 C 57 % 988,9 hPa 0,0 l/m 0,0 km/h SO 5,8 C 14,2 C 0,0 km/h
16.06.2014 01:00 13,2 C 62 % 988,9 hPa 0,0 l/m 3,2 km/h SO 6,1 C 13,2 C 3,2 km/h
16.06.2014 02:00 12,4 C 62 % 988,8 hPa 0,0 l/m 0,0 km/h W-NW 5,3 C 12,4 C 0,0 km/h
16.06.2014 03:00 10,4 C 71 % 988,8 hPa 0,0 l/m 0,0 km/h S 5,4 C 10,4 C 0,0 km/h
16.06.2014 04:00 7,6 C 76 % 988,8 hPa 0,0 l/m 0,0 km/h S-SO 3,6 C 7,6 C 0,0 km/h
16.06.2014 05:00 6,5 C 78 % 988,8 hPa 0,0 l/m 0,0 km/h S-SO 2,9 C 6,5 C 0,0 km/h
16.06.2014 06:00 6,4 C 81 % 989,2 hPa 0,0 l/m 0,0 km/h S-SO 3,4 C 6,4 C 0,0 km/h
16.06.2014 07:00 10,8 C 81 % 989,3 hPa 0,0 l/m 0,0 km/h N-NW 7,7 C 10,8 C 0,0 km/h
16.06.2014 08:00 21,8 C 50 % 989,1 hPa 0,0 l/m 0,0 km/h S 10,9 C 21,8 C 0,0 km/h
16.06.2014 09:00 25,5 C 43 % 988,9 hPa 0,0 l/m 0,0 km/h NO 12,0 C 25,5 C 0,0 km/h
16.06.2014 10:00 27,9 C 31 % 988,3 hPa 0,0 l/m 0,0 km/h N 9,2 C 27,9 C 0,0 km/h
16.06.2014 11:00 27,8 C 31 % 988,3 hPa 0,0 l/m 22,0 km/h O 9,1 C 26,1 C 12,2 km/h
16.06.2014 12:00 26,3 C 32 % 988,1 hPa 0,0 l/m 0,0 km/h N 8,3 C 26,3 C 0,0 km/h
16.06.2014 13:00 26,4 C 31 % 988,1 hPa 0,0 l/m 2,6 km/h N-NO 7,9 C 26,4 C 1,4 km/h
16.06.2014 14:00 26,8 C 30 % 987,4 hPa 0,0 l/m 0,0 km/h N 7,8 C 26,8 C 0,0 km/h
16.06.2014 15:00 28,8 C 28 % 986,9 hPa 0,0 l/m 17,5 km/h N 8,5 C 27,7 C 9,7 km/h
16.06.2014 16:00 29,9 C 28 % 986,6 hPa 0,0 l/m 2,6 km/h N 9,4 C 29,9 C 1,4 km/h
16.06.2014 17:00 30,3 C 26 % 986,6 hPa 0,0 l/m 3,9 km/h N-NO 8,6 C 30,3 C 2,2 km/h
16.06.2014 18:00 27,7 C 29 % 986,4 hPa 0,0 l/m 0,0 km/h N-NO 8,0 C 27,7 C 0,0 km/h
16.06.2014 19:00 25,2 C 34 % 986,5 hPa 0,0 l/m 10,4 km/h N-NO 8,2 C 24,3 C 5,8 km/h
16.06.2014 20:00 21,3 C 41 % 986,7 hPa 0,0 l/m 5,2 km/h N 7,5 C 21,3 C 2,9 km/h
16.06.2014 21:00 19,3 C 47 % 986,6 hPa 0,0 l/m 1,1 km/h NO 7,7 C 19,3 C 1,1 km/h
16.06.2014 22:00 17,9 C 51 % 987,1 hPa 0,0 l/m 0,0 km/h N-NO 7,6 C 17,9 C 0,0 km/h
16.06.2014 23:00 16,9 C 55 % 987,7 hPa 0,0 l/m 0,4 km/h N-NO 7,8 C 16,9 C 0,4 km/h
17.06.2014 00:00 16,2 C 60 % 988,1 hPa 0,0 l/m 0,0 km/h N-NO 8,4 C 16,2 C 0,0 km/h
17.06.2014 01:00 15,4 C 63 % 988,2 hPa 0,0 l/m 1,1 km/h NW 8,4 C 15,4 C 1,1 km/h
17.06.2014 02:00 14,4 C 65 % 988,4 hPa 0,0 l/m 4,3 km/h N-NW 7,9 C 14,4 C 4,3 km/h
17.06.2014 03:00 13,9 C 68 % 988,4 hPa 0,0 l/m 0,0 km/h O-SO 8,1 C 13,9 C 0,0 km/h
17.06.2014 04:00 12,1 C 72 % 988,3 hPa 0,0 l/m 0,0 km/h O-SO 7,2 C 12,1 C 0,0 km/h
17.06.2014 05:00 11,0 C 75 % 988,1 hPa 0,0 l/m 0,0 km/h O-SO 6,7 C 11,0 C 0,0 km/h
17.06.2014 06:00 11,6 C 79 % 988,6 hPa 0,0 l/m 0,0 km/h O-SO 8,1 C 11,6 C 0,0 km/h
17.06.2014 07:00 14,6 C 76 % 988,6 hPa 0,0 l/m 0,0 km/h O-SO 10,4 C 14,6 C 0,0 km/h
17.06.2014 08:00 18,9 C 63 % 988,8 hPa 0,0 l/m 0,0 km/h W 11,7 C 18,9 C 0,0 km/h
17.06.2014 09:00 18,9 C 61 % 988,7 hPa 0,0 l/m 3,2 km/h N-NW 11,2 C 18,9 C 1,8 km/h
17.06.2014 10:00 21,5 C 54 % 988,7 hPa 0,0 l/m 0,6 km/h O 11,8 C 21,5 C 0,4 km/h
17.06.2014 11:00 22,4 C 47 % 988,3 hPa 0,0 l/m 0,0 km/h N-NO 10,5 C 22,4 C 0,0 km/h
17.06.2014 12:00 22,6 C 48 % 988,5 hPa 0,0 l/m 4,5 km/h N-NO 11,0 C 22,6 C 2,5 km/h
17.06.2014 13:00 22,7 C 47 % 987,9 hPa 0,0 l/m 2,6 km/h N 10,8 C 22,7 C 1,4 km/h
17.06.2014 14:00 22,0 C 49 % 987,6 hPa 0,0 l/m 0,0 km/h N-NO 10,8 C 22,0 C 0,0 km/h
17.06.2014 15:00 24,3 C 43 % 987,0 hPa 0,0 l/m 8,4 km/h N-NO 10,9 C 23,8 C 4,7 km/h
17.06.2014 16:00 21,5 C 49 % 987,0 hPa 0,0 l/m 0,0 km/h SO 10,3 C 21,5 C 0,0 km/h
17.06.2014 17:00 18,5 C 66 % 987,1 hPa 0,0 l/m 0,0 km/h S-SO 12,0 C 18,5 C 0,0 km/h
17.06.2014 18:00 21,6 C 64 % 986,8 hPa 0,0 l/m 0,0 km/h N-NO 14,5 C 21,6 C 0,0 km/h
17.06.2014 19:00 20,4 C 55 % 987,0 hPa 0,0 l/m 0,6 km/h O-SO 11,1 C 20,4 C 0,4 km/h
17.06.2014 20:00 18,4 C 60 % 987,4 hPa 0,0 l/m 0,0 km/h O-SO 10,5 C 18,4 C 0,0 km/h
17.06.2014 21:00 15,6 C 70 % 987,8 hPa 0,0 l/m 0,0 km/h O-SO 10,1 C 15,6 C 0,0 km/h
17.06.2014 22:00 13,8 C 76 % 988,4 hPa 0,0 l/m 0,0 km/h N-NO 9,6 C 13,8 C 0,0 km/h
17.06.2014 23:00 12,8 C 79 % 988,5 hPa 0,0 l/m 0,0 km/h NW 9,2 C 12,8 C 0,0 km/h
18.06.2014 00:00 13,3 C 80 % 988,5 hPa 0,0 l/m 0,0 km/h O-SO 9,9 C 13,3 C 0,0 km/h
18.06.2014 01:00 11,2 C 81 % 988,7 hPa 0,0 l/m 0,0 km/h O-SO 8,1 C 11,2 C 0,0 km/h
18.06.2014 02:00 10,7 C 82 % 988,5 hPa 0,0 l/m 0,0 km/h SO 7,8 C 10,7 C 0,0 km/h
18.06.2014 03:00 9,5 C 84 % 988,1 hPa 0,0 l/m 0,0 km/h O-SO 6,9 C 9,5 C 0,0 km/h
18.06.2014 04:00 8,6 C 84 % 987,8 hPa 0,0 l/m 0,0 km/h O-SO 6,1 C 8,6 C 0,0 km/h
18.06.2014 05:00 7,9 C 84 % 988,3 hPa 0,0 l/m 0,0 km/h O-SO 5,4 C 7,9 C 0,0 km/h
18.06.2014 06:00 8,9 C 84 % 988,5 hPa 0,0 l/m 0,0 km/h O-SO 6,3 C 8,9 C 0,0 km/h
18.06.2014 07:00 12,1 C 84 % 988,7 hPa 0,0 l/m 0,0 km/h W 9,5 C 12,1 C 0,0 km/h
18.06.2014 08:00 22,9 C 59 % 988,8 hPa 0,0 l/m 0,0 km/h N-NO 14,5 C 22,9 C 0,0 km/h
18.06.2014 09:00 26,4 C 46 % 988,7 hPa 0,0 l/m 0,0 km/h N 13,8 C 26,4 C 0,0 km/h
18.06.2014 10:00 26,0 C 42 % 988,7 hPa 0,0 l/m 1,3 km/h NO 12,1 C 26,0 C 0,7 km/h
18.06.2014 11:00 27,9 C 39 % 988,6 hPa 0,0 l/m 0,0 km/h NO 12,6 C 27,9 C 0,0 km/h
18.06.2014 12:00 28,4 C 35 % 988,6 hPa 0,0 l/m 0,0 km/h NO 11,4 C 28,4 C 0,0 km/h
18.06.2014 13:00 29,1 C 33 % 988,2 hPa 0,0 l/m 0,0 km/h N 11,2 C 29,1 C 0,0 km/h
18.06.2014 14:00 30,9 C 31 % 987,6 hPa 0,0 l/m 1,9 km/h N-NO 11,8 C 30,9 C 1,1 km/h
18.06.2014 15:00 28,9 C 33 % 987,3 hPa 0,0 l/m 12,3 km/h N-NO 11,0 C 28,3 C 6,8 km/h
18.06.2014 16:00 30,9 C 31 % 987,0 hPa 0,0 l/m 5,2 km/h NO 11,8 C 30,9 C 2,9 km/h
18.06.2014 17:00 31,1 C 30 % 986,6 hPa 0,0 l/m 0,0 km/h N-NO 11,5 C 31,1 C 0,0 km/h
18.06.2014 18:00 26,4 C 36 % 986,5 hPa 0,0 l/m 13,6 km/h N-NO 10,1 C 25,2 C 7,6 km/h
18.06.2014 19:00 29,1 C 33 % 987,0 hPa 0,0 l/m 16,8 km/h N-NO 11,2 C 28,2 C 9,4 km/h
18.06.2014 20:00 24,1 C 39 % 987,1 hPa 0,0 l/m 1,3 km/h O 9,3 C 24,1 C 0,7 km/h
18.06.2014 21:00 21,2 C 45 % 987,4 hPa 0,0 l/m 15,5 km/h SO 8,8 C 18,6 C 15,5 km/h
18.06.2014 22:00 15,6 C 61 % 988,3 hPa 0,0 l/m 0,0 km/h SO 8,1 C 15,6 C 0,0 km/h
18.06.2014 23:00 14,2 C 68 % 988,5 hPa 0,0 l/m 0,0 km/h O 8,4 C 14,2 C 0,0 km/h
19.06.2014 00:00 14,7 C 68 % 988,6 hPa 0,0 l/m 0,0 km/h O 8,9 C 14,7 C 0,0 km/h
19.06.2014 01:00 14,1 C 71 % 988,8 hPa 0,0 l/m 0,0 km/h O-SO 8,9 C 14,1 C 0,0 km/h
19.06.2014 02:00 11,9 C 75 % 988,8 hPa 0,0 l/m 0,0 km/h O-NO 7,6 C 11,9 C 0,0 km/h
19.06.2014 03:00 10,8 C 79 % 988,6 hPa 0,0 l/m 0,0 km/h O-NO 7,3 C 10,8 C 0,0 km/h
19.06.2014 04:00 9,3 C 81 % 988,9 hPa 0,0 l/m 0,0 km/h O-NO 6,2 C 9,3 C 0,0 km/h
19.06.2014 05:00 9,9 C 82 % 988,9 hPa 0,0 l/m 0,0 km/h O-NO 7,0 C 9,9 C 0,0 km/h
19.06.2014 06:00 10,1 C 82 % 989,1 hPa 0,0 l/m 0,0 km/h O-NO 7,2 C 10,1 C 0,0 km/h
19.06.2014 07:00 13,0 C 81 % 989,3 hPa 0,0 l/m 0,0 km/h W-NW 9,8 C 13,0 C 0,0 km/h
19.06.2014 08:00 19,8 C 61 % 989,3 hPa 0,0 l/m 0,0 km/h SW 12,1 C 19,8 C 0,0 km/h
19.06.2014 09:00 20,2 C 54 % 989,2 hPa 0,0 l/m 0,0 km/h W-NW 10,6 C 20,2 C 0,0 km/h
19.06.2014 10:00 21,1 C 55 % 989,2 hPa 0,0 l/m 0,0 km/h W-SW 11,7 C 21,1 C 0,0 km/h
19.06.2014 11:00 27,6 C 46 % 988,8 hPa 0,0 l/m 15,6 km/h NW 14,9 C 26,4 C 8,6 km/h
19.06.2014 12:00 27,9 C 39 % 988,5 hPa 0,0 l/m 0,0 km/h N 12,6 C 27,9 C 0,0 km/h
19.06.2014 13:00 28,1 C 34 % 988,1 hPa 0,0 l/m 16,2 km/h N-NW 10,7 C 27,0 C 9,0 km/h
19.06.2014 14:00 29,1 C 30 % 987,7 hPa 0,0 l/m 7,1 km/h NW 9,7 C 29,0 C 4,0 km/h
19.06.2014 15:00 30,3 C 32 % 987,3 hPa 0,0 l/m 0,0 km/h W-NW 11,7 C 30,3 C 0,0 km/h
19.06.2014 16:00 31,8 C 30 % 987,2 hPa 0,0 l/m 13,6 km/h N-NO 12,1 C 31,6 C 7,6 km/h
19.06.2014 17:00 32,1 C 29 % 986,8 hPa 0,0 l/m 0,0 km/h N-NO 11,8 C 32,1 C 0,0 km/h
19.06.2014 18:00 30,1 C 29 % 986,6 hPa 0,0 l/m 6,5 km/h N-NO 10,1 C 30,1 C 3,6 km/h
19.06.2014 19:00 28,3 C 31 % 986,7 hPa 0,0 l/m 16,8 km/h N 9,5 C 27,2 C 9,4 km/h
19.06.2014 20:00 23,3 C 39 % 986,9 hPa 0,0 l/m 0,0 km/h N-NO 8,6 C 23,3 C 0,0 km/h
19.06.2014 21:00 20,5 C 43 % 987,0 hPa 0,0 l/m 0,0 km/h O 7,5 C 20,5 C 0,0 km/h
19.06.2014 22:00 16,1 C 56 % 987,4 hPa 0,0 l/m 0,0 km/h NO 7,3 C 16,1 C 0,0 km/h
19.06.2014 23:00 15,6 C 61 % 987,5 hPa 0,0 l/m 0,0 km/h NO 8,1 C 15,6 C 0,0 km/h
20.06.2014 00:00 14,5 C 66 % 987,8 hPa 0,0 l/m 0,0 km/h NO 8,2 C 14,5 C 0,0 km/h
20.06.2014 01:00 12,6 C 72 % 988,1 hPa 0,0 l/m 0,0 km/h O 7,7 C 12,6 C 0,0 km/h
20.06.2014 02:00 11,6 C 74 % 988,3 hPa 0,0 l/m 0,0 km/h O-NO 7,1 C 11,6 C 0,0 km/h
20.06.2014 03:00 10,1 C 76 % 988,1 hPa 0,0 l/m 0,0 km/h NO 6,1 C 10,1 C 0,0 km/h
20.06.2014 04:00 10,2 C 80 % 988,1 hPa 0,0 l/m 0,0 km/h O 6,9 C 10,2 C 0,0 km/h
20.06.2014 05:00 9,8 C 82 % 988,0 hPa 0,0 l/m 0,0 km/h O-SO 6,9 C 9,8 C 0,0 km/h
20.06.2014 06:00 11,8 C 80 % 987,9 hPa 0,0 l/m 0,0 km/h O-SO 8,5 C 11,8 C 0,0 km/h
20.06.2014 07:00 14,1 C 78 % 988,2 hPa 0,0 l/m 0,0 km/h NO 10,3 C 14,1 C 0,0 km/h
20.06.2014 08:00 17,5 C 68 % 988,4 hPa 0,0 l/m 0,0 km/h W 11,5 C 17,5 C 0,0 km/h
20.06.2014 09:00 18,5 C 63 % 988,6 hPa 0,0 l/m 0,0 km/h N 11,3 C 18,5 C 0,0 km/h
20.06.2014 10:00 23,4 C 52 % 988,4 hPa 0,0 l/m 0,0 km/h N-NW 13,0 C 23,4 C 0,0 km/h
20.06.2014 11:00 22,3 C 53 % 988,7 hPa 0,0 l/m 0,6 km/h N-NO 12,2 C 22,3 C 0,4 km/h
20.06.2014 12:00 22,9 C 50 % 988,5 hPa 0,0 l/m 1,9 km/h N-NO 11,9 C 22,9 C 1,1 km/h
20.06.2014 13:00 24,4 C 45 % 988,3 hPa 0,0 l/m 0,0 km/h N-NO 11,7 C 24,4 C 0,0 km/h
20.06.2014 14:00 24,8 C 44 % 988,0 hPa 0,0 l/m 3,2 km/h N-NO 11,7 C 24,8 C 1,8 km/h
20.06.2014 15:00 24,4 C 42 % 987,9 hPa 0,0 l/m 13,6 km/h N-NO 10,6 C 22,8 C 7,6 km/h
20.06.2014 16:00 25,7 C 37 % 987,7 hPa 0,0 l/m 5,8 km/h N 9,9 C 25,7 C 3,2 km/h
20.06.2014 17:00 28,4 C 33 % 987,5 hPa 0,0 l/m 1,9 km/h N-NO 10,6 C 28,4 C 1,1 km/h
20.06.2014 18:00 29,0 C 30 % 987,6 hPa 0,0 l/m 0,0 km/h O-NO 9,6 C 29,0 C 0,0 km/h
20.06.2014 19:00 26,3 C 32 % 987,8 hPa 0,0 l/m 0,0 km/h N 8,3 C 26,3 C 0,0 km/h
20.06.2014 20:00 20,1 C 42 % 987,9 hPa 0,0 l/m 11,0 km/h N-NO 6,8 C 18,4 C 6,1 km/h
20.06.2014 21:00 17,9 C 48 % 988,0 hPa 0,0 l/m 0,0 km/h NO 6,7 C 17,9 C 0,0 km/h
20.06.2014 22:00 14,1 C 56 % 988,4 hPa 0,0 l/m 0,0 km/h O-SO 5,5 C 14,1 C 0,0 km/h
20.06.2014 23:00 11,3 C 66 % 988,2 hPa 0,0 l/m 0,0 km/h SO 5,2 C 11,3 C 0,0 km/h
21.06.2014 00:00 10,4 C 72 % 988,5 hPa 0,0 l/m 0,0 km/h SO 5,6 C 10,4 C 0,0 km/h
21.06.2014 01:00 9,8 C 73 % 988,6 hPa 0,0 l/m 0,0 km/h O 5,2 C 9,8 C 0,0 km/h
21.06.2014 02:00 11,2 C 75 % 988,7 hPa 0,0 l/m 0,0 km/h SO 6,9 C 11,2 C 0,0 km/h
21.06.2014 03:00 11,6 C 73 % 988,8 hPa 0,0 l/m 0,0 km/h NO 6,9 C 11,6 C 0,0 km/h
21.06.2014 04:00 9,9 C 75 % 988,8 hPa 0,0 l/m 0,0 km/h O-NO 5,7 C 9,9 C 0,0 km/h
21.06.2014 05:00 8,9 C 79 % 988,6 hPa 0,0 l/m 0,0 km/h O-NO 5,5 C 8,9 C 0,0 km/h
21.06.2014 06:00 9,3 C 80 % 988,8 hPa 0,0 l/m 0,0 km/h NO 6,0 C 9,3 C 0,0 km/h
21.06.2014 07:00 11,6 C 80 % 988,7 hPa 0,0 l/m 0,0 km/h NW 8,3 C 11,6 C 0,0 km/h
21.06.2014 08:00 19,3 C 59 % 988,9 hPa 0,0 l/m 0,0 km/h NW 11,1 C 19,3 C 0,0 km/h
21.06.2014 09:00 24,1 C 44 % 988,8 hPa 0,0 l/m 0,0 km/h W-SW 11,1 C 24,1 C 0,0 km/h
21.06.2014 10:00 25,6 C 42 % 988,7 hPa 0,0 l/m 0,0 km/h N-NO 11,7 C 25,6 C 0,0 km/h
21.06.2014 11:00 26,6 C 37 % 988,2 hPa 0,0 l/m 16,8 km/h N 10,7 C 25,0 C 9,4 km/h
21.06.2014 12:00 26,8 C 35 % 987,9 hPa 0,0 l/m 0,0 km/h S 10,0 C 26,8 C 0,0 km/h
21.06.2014 13:00 26,4 C 36 % 987,7 hPa 0,0 l/m 5,8 km/h NW 10,1 C 26,4 C 3,2 km/h
21.06.2014 14:00 26,6 C 34 % 987,6 hPa 0,0 l/m 0,0 km/h NW 9,4 C 26,6 C 0,0 km/h
21.06.2014 15:00 28,7 C 30 % 987,1 hPa 0,0 l/m 0,0 km/h W-NW 9,4 C 28,7 C 0,0 km/h
21.06.2014 16:00 32,2 C 27 % 986,9 hPa 0,0 l/m 5,8 km/h W-NW 10,8 C 32,2 C 3,2 km/h
21.06.2014 17:00 33,6 C 24 % 986,8 hPa 0,0 l/m 0,0 km/h W 10,2 C 33,6 C 0,0 km/h
21.06.2014 18:00 31,9 C 25 % 986,5 hPa 0,0 l/m 16,2 km/h N-NO 9,4 C 31,6 C 9,0 km/h
21.06.2014 19:00 29,3 C 27 % 986,2 hPa 0,0 l/m 8,4 km/h N 8,3 C 29,1 C 4,7 km/h
21.06.2014 20:00 22,8 C 38 % 986,5 hPa 0,0 l/m 0,0 km/h N 7,7 C 22,8 C 0,0 km/h
21.06.2014 21:00 19,8 C 44 % 987,2 hPa 0,0 l/m 0,0 km/h NO 7,2 C 19,8 C 0,0 km/h
21.06.2014 22:00 15,5 C 59 % 987,7 hPa 0,0 l/m 0,0 km/h O-NO 7,5 C 15,5 C 0,0 km/h
21.06.2014 23:00 13,6 C 65 % 987,8 hPa 0,0 l/m 0,0 km/h O-SO 7,1 C 13,6 C 0,0 km/h
22.06.2014 00:00 13,3 C 69 % 987,9 hPa 0,0 l/m 0,0 km/h NO 7,7 C 13,3 C 0,0 km/h
22.06.2014 01:00 10,3 C 72 % 988,1 hPa 0,0 l/m 0,0 km/h NO 5,5 C 10,3 C 0,0 km/h
22.06.2014 02:00 9,2 C 76 % 988,3 hPa 0,0 l/m 0,0 km/h NO 5,2 C 9,2 C 0,0 km/h
22.06.2014 03:00 8,4 C 79 % 988,2 hPa 0,0 l/m 0,0 km/h NO 5,0 C 8,4 C 0,0 km/h
22.06.2014 04:00 7,3 C 81 % 988,4 hPa 0,0 l/m 0,0 km/h O-SO 4,3 C 7,3 C 0,0 km/h
22.06.2014 05:00 6,5 C 82 % 988,4 hPa 0,0 l/m 0,0 km/h NO 3,7 C 6,5 C 0,0 km/h
22.06.2014 06:00 8,8 C 84 % 988,7 hPa 0,0 l/m 0,0 km/h O-NO 6,2 C 8,8 C 0,0 km/h
22.06.2014 07:00 10,9 C 83 % 989,2 hPa 0,0 l/m 0,0 km/h N-NO 8,1 C 10,9 C 0,0 km/h
22.06.2014 08:00 21,8 C 56 % 989,6 hPa 0,0 l/m 0,0 km/h W 12,6 C 21,8 C 0,0 km/h
22.06.2014 09:00 26,4 C 40 % 989,6 hPa 0,0 l/m 0,0 km/h N-NW 11,7 C 26,4 C 0,0 km/h
22.06.2014 10:00 28,1 C 37 % 989,5 hPa 0,0 l/m 0,0 km/h N-NO 12,0 C 28,1 C 0,0 km/h
22.06.2014 11:00 29,4 C 34 % 989,5 hPa 0,0 l/m 7,8 km/h N 11,9 C 29,2 C 4,3 km/h
22.06.2014 12:00 27,9 C 34 % 989,2 hPa 0,0 l/m 0,0 km/h W 10,6 C 27,9 C 0,0 km/h
22.06.2014 13:00 29,1 C 34 % 988,9 hPa 0,0 l/m 0,0 km/h N-NO 11,6 C 29,1 C 0,0 km/h
22.06.2014 14:00 30,1 C 30 % 988,7 hPa 0,0 l/m 0,0 km/h W-NW 10,6 C 30,1 C 0,0 km/h
22.06.2014 15:00 30,8 C 27 % 988,6 hPa 0,0 l/m 5,2 km/h W 9,6 C 30,8 C 2,9 km/h
22.06.2014 16:00 33,8 C 24 % 988,3 hPa 0,0 l/m 20,1 km/h NW 10,4 C 33,8 C 11,2 km/h
22.06.2014 17:00 31,3 C 28 % 988,4 hPa 0,0 l/m 0,0 km/h N-NW 10,6 C 31,3 C 0,0 km/h
22.06.2014 18:00 32,8 C 27 % 988,0 hPa 0,0 l/m 0,0 km/h N 11,3 C 32,8 C 0,0 km/h
22.06.2014 19:00 26,9 C 34 % 988,4 hPa 0,0 l/m 0,0 km/h N 9,7 C 26,9 C 0,0 km/h
22.06.2014 20:00 23,5 C 41 % 988,5 hPa 0,0 l/m 5,8 km/h SO 9,5 C 23,5 C 3,2 km/h
22.06.2014 21:00 20,1 C 49 % 989,1 hPa 0,0 l/m 0,0 km/h N-NO 9,0 C 20,1 C 0,0 km/h
22.06.2014 22:00 18,6 C 55 % 989,7 hPa 0,0 l/m 0,0 km/h NO 9,4 C 18,6 C 0,0 km/h
22.06.2014 23:00 16,4 C 59 % 990,0 hPa 0,0 l/m 0,0 km/h O-NO 8,4 C 16,4 C 0,0 km/h
Min-Datum _ 16.06.14 21.06.14 21.06.14 - 16.06.14 - 16.06.14 16.06.14 16.06.14
_ Min-Zeit 06:19 17:19 19:19 - 00:19 - 05:19 06:19 00:19
Minimum _ 6,4 C 24 % 986,2 hPa - 0,0 km/h - 2,9 C 6,4 C 0,0 km/h
Max-Datum _ 22.06.14 18.06.14 22.06.14 16.06.14 16.06.14 - 19.06.14 22.06.14 18.06.14
_ Max-Zeit 16:19 03:19 23:19 00:19 11:19 - 11:19 16:19 21:19
Maximum _ 33,8 C 84 % 990,0 hPa 0,0 l/m 22,0 km/h
O
- 14,9 C 33,8 C 15,5 km/h
SO
Durchschnitt _ 19,8 C 54 % 988,1 hPa #0,0 l/m 2,2 km/h N-NO 9,1 C 19,7 C 1,3 km/h
www.sexauwetter.de